sensor_id;sensor_type;location;lat;lon;timestamp;P1;durP1;ratioP1;P2;durP2;ratioP2
146;SDS011;45999;48.808;9.182;2023-03-01T00:02:07;14.97;;;11.57;;
146;SDS011;45999;48.808;9.182;2023-03-01T00:04:34;15.37;;;11.87;;
146;SDS011;45999;48.808;9.182;2023-03-01T00:07:01;17.80;;;12.67;;
146;SDS011;45999;48.808;9.182;2023-03-01T00:09:27;15.80;;;12.70;;
146;SDS011;45999;48.808;9.182;2023-03-01T00:11:54;14.80;;;12.27;;
146;SDS011;45999;48.808;9.182;2023-03-01T00:14:20;16.33;;;12.90;;
146;SDS011;45999;48.808;9.182;2023-03-01T00:16:46;17.30;;;12.20;;
146;SDS011;45999;48.808;9.182;2023-03-01T00:19:14;14.67;;;11.83;;
146;SDS011;45999;48.808;9.182;2023-03-01T00:21:44;14.90;;;11.63;;
146;SDS011;45999;48.808;9.182;2023-03-01T00:24:11;17.47;;;12.33;;
146;SDS011;45999;48.808;9.182;2023-03-01T00:26:38;15.83;;;12.33;;
146;SDS011;45999;48.808;9.182;2023-03-01T00:29:04;16.63;;;10.97;;
146;SDS011;45999;48.808;9.182;2023-03-01T00:31:31;15.63;;;12.43;;
146;SDS011;45999;48.808;9.182;2023-03-01T00:34:00;16.23;;;12.07;;
146;SDS011;45999;48.808;9.182;2023-03-01T00:36:30;18.70;;;13.07;;
146;SDS011;45999;48.808;9.182;2023-03-01T00:38:58;14.83;;;11.80;;
146;SDS011;45999;48.808;9.182;2023-03-01T00:41:24;17.27;;;11.77;;
146;SDS011;45999;48.808;9.182;2023-03-01T00:43:52;15.80;;;12.13;;
146;SDS011;45999;48.808;9.182;2023-03-01T00:46:21;18.87;;;12.77;;
146;SDS011;45999;48.808;9.182;2023-03-01T00:48:49;13.23;;;11.80;;
146;SDS011;45999;48.808;9.182;2023-03-01T00:51:17;14.53;;;11.90;;
146;SDS011;45999;48.808;9.182;2023-03-01T00:53:49;15.63;;;12.13;;
146;SDS011;45999;48.808;9.182;2023-03-01T00:56:18;17.33;;;12.00;;
146;SDS011;45999;48.808;9.182;2023-03-01T00:58:44;16.47;;;12.27;;
146;SDS011;45999;48.808;9.182;2023-03-01T01:03:46;16.30;;;12.50;;
146;SDS011;45999;48.808;9.182;2023-03-01T01:06:16;15.83;;;11.57;;
146;SDS011;45999;48.808;9.182;2023-03-01T01:08:51;20.20;;;12.60;;
146;SDS011;45999;48.808;9.182;2023-03-01T01:11:18;17.37;;;12.03;;
146;SDS011;45999;48.808;9.182;2023-03-01T01:13:46;15.10;;;12.57;;
146;SDS011;45999;48.808;9.182;2023-03-01T01:16:13;16.60;;;13.20;;
146;SDS011;45999;48.808;9.182;2023-03-01T01:18:41;17.87;;;13.10;;
146;SDS011;45999;48.808;9.182;2023-03-01T01:21:09;16.03;;;12.17;;
146;SDS011;45999;48.808;9.182;2023-03-01T01:23:41;16.50;;;11.53;;
146;SDS011;45999;48.808;9.182;2023-03-01T01:26:10;15.20;;;11.80;;
146;SDS011;45999;48.808;9.182;2023-03-01T01:28:39;17.63;;;12.77;;
146;SDS011;45999;48.808;9.182;2023-03-01T01:31:05;16.30;;;12.53;;
146;SDS011;45999;48.808;9.182;2023-03-01T01:33:32;15.30;;;12.67;;
146;SDS011;45999;48.808;9.182;2023-03-01T01:35:59;19.17;;;12.00;;
146;SDS011;45999;48.808;9.182;2023-03-01T01:38:25;16.53;;;12.83;;
146;SDS011;45999;48.808;9.182;2023-03-01T01:40:52;16.40;;;12.30;;
146;SDS011;45999;48.808;9.182;2023-03-01T01:43:37;19.13;;;12.77;;
146;SDS011;45999;48.808;9.182;2023-03-01T01:48:58;14.90;;;11.60;;
146;SDS011;45999;48.808;9.182;2023-03-01T01:51:28;14.13;;;11.87;;
146;SDS011;45999;48.808;9.182;2023-03-01T01:54:03;18.27;;;12.97;;
146;SDS011;45999;48.808;9.182;2023-03-01T01:56:36;15.00;;;11.83;;
146;SDS011;45999;48.808;9.182;2023-03-01T01:59:05;15.50;;;12.67;;
146;SDS011;45999;48.808;9.182;2023-03-01T02:01:31;16.07;;;12.23;;
146;SDS011;45999;48.808;9.182;2023-03-01T02:03:58;16.20;;;12.67;;
146;SDS011;45999;48.808;9.182;2023-03-01T02:06:32;17.37;;;12.93;;
146;SDS011;45999;48.808;9.182;2023-03-01T02:09:05;18.83;;;13.70;;
146;SDS011;45999;48.808;9.182;2023-03-01T02:11:37;16.90;;;12.63;;
146;SDS011;45999;48.808;9.182;2023-03-01T02:14:03;18.57;;;12.57;;
146;SDS011;45999;48.808;9.182;2023-03-01T02:16:30;15.93;;;12.50;;
146;SDS011;45999;48.808;9.182;2023-03-01T02:18:57;16.53;;;12.43;;
146;SDS011;45999;48.808;9.182;2023-03-01T02:23:50;17.23;;;12.40;;
146;SDS011;45999;48.808;9.182;2023-03-01T02:29:06;18.30;;;13.10;;
146;SDS011;45999;48.808;9.182;2023-03-01T02:31:33;16.60;;;12.47;;
146;SDS011;45999;48.808;9.182;2023-03-01T02:34:19;14.10;;;11.97;;
146;SDS011;45999;48.808;9.182;2023-03-01T02:37:11;14.33;;;11.40;;
146;SDS011;45999;48.808;9.182;2023-03-01T02:39:41;18.60;;;12.60;;
146;SDS011;45999;48.808;9.182;2023-03-01T02:42:13;17.37;;;12.87;;
146;SDS011;45999;48.808;9.182;2023-03-01T02:44:42;16.87;;;12.33;;
146;SDS011;45999;48.808;9.182;2023-03-01T02:47:09;15.17;;;11.73;;
146;SDS011;45999;48.808;9.182;2023-03-01T02:49:36;17.03;;;13.00;;
146;SDS011;45999;48.808;9.182;2023-03-01T02:54:58;14.57;;;11.87;;
146;SDS011;45999;48.808;9.182;2023-03-01T02:57:29;17.17;;;12.60;;
146;SDS011;45999;48.808;9.182;2023-03-01T02:59:59;17.47;;;13.10;;
146;SDS011;45999;48.808;9.182;2023-03-01T03:02:32;15.77;;;12.73;;
146;SDS011;45999;48.808;9.182;2023-03-01T03:07:31;18.10;;;12.67;;
146;SDS011;45999;48.808;9.182;2023-03-01T03:09:59;17.27;;;13.40;;
146;SDS011;45999;48.808;9.182;2023-03-01T03:12:26;18.50;;;12.93;;
146;SDS011;45999;48.808;9.182;2023-03-01T03:14:52;15.70;;;12.33;;
146;SDS011;45999;48.808;9.182;2023-03-01T03:17:18;16.33;;;13.13;;
146;SDS011;45999;48.808;9.182;2023-03-01T03:19:45;16.50;;;12.80;;
146;SDS011;45999;48.808;9.182;2023-03-01T03:22:12;16.97;;;12.63;;
146;SDS011;45999;48.808;9.182;2023-03-01T03:24:38;16.07;;;12.50;;
146;SDS011;45999;48.808;9.182;2023-03-01T03:27:05;15.70;;;12.20;;
146;SDS011;45999;48.808;9.182;2023-03-01T03:29:32;16.90;;;12.90;;
146;SDS011;45999;48.808;9.182;2023-03-01T03:31:59;17.73;;;13.03;;
146;SDS011;45999;48.808;9.182;2023-03-01T03:34:25;19.10;;;13.17;;
146;SDS011;45999;48.808;9.182;2023-03-01T03:36:55;18.20;;;13.03;;
146;SDS011;45999;48.808;9.182;2023-03-01T03:39:24;18.30;;;12.83;;
146;SDS011;45999;48.808;9.182;2023-03-01T03:41:52;15.70;;;12.40;;
146;SDS011;45999;48.808;9.182;2023-03-01T03:44:20;17.77;;;14.50;;
146;SDS011;45999;48.808;9.182;2023-03-01T03:46:46;21.63;;;13.80;;
146;SDS011;45999;48.808;9.182;2023-03-01T03:49:13;18.13;;;13.10;;
146;SDS011;45999;48.808;9.182;2023-03-01T03:51:39;16.67;;;13.13;;
146;SDS011;45999;48.808;9.182;2023-03-01T03:54:05;18.17;;;14.00;;
146;SDS011;45999;48.808;9.182;2023-03-01T03:56:32;18.80;;;13.10;;
146;SDS011;45999;48.808;9.182;2023-03-01T03:58:58;18.60;;;14.60;;
146;SDS011;45999;48.808;9.182;2023-03-01T04:01:25;17.73;;;13.50;;
146;SDS011;45999;48.808;9.182;2023-03-01T04:03:51;17.97;;;13.67;;
146;SDS011;45999;48.808;9.182;2023-03-01T04:06:19;18.23;;;13.93;;
146;SDS011;45999;48.808;9.182;2023-03-01T04:08:46;19.03;;;13.33;;
146;SDS011;45999;48.808;9.182;2023-03-01T04:11:15;16.93;;;13.57;;
146;SDS011;45999;48.808;9.182;2023-03-01T04:13:55;20.37;;;13.77;;
146;SDS011;45999;48.808;9.182;2023-03-01T04:16:23;19.60;;;14.17;;
146;SDS011;45999;48.808;9.182;2023-03-01T04:18:49;16.80;;;13.73;;
146;SDS011;45999;48.808;9.182;2023-03-01T04:21:17;20.03;;;13.77;;
146;SDS011;45999;48.808;9.182;2023-03-01T04:23:45;17.93;;;13.70;;
146;SDS011;45999;48.808;9.182;2023-03-01T04:26:11;16.87;;;13.70;;
146;SDS011;45999;48.808;9.182;2023-03-01T04:28:39;18.73;;;14.37;;
146;SDS011;45999;48.808;9.182;2023-03-01T04:31:15;15.63;;;13.33;;
146;SDS011;45999;48.808;9.182;2023-03-01T04:36:09;18.17;;;13.63;;
146;SDS011;45999;48.808;9.182;2023-03-01T04:38:37;18.23;;;13.60;;
146;SDS011;45999;48.808;9.182;2023-03-01T04:41:04;19.27;;;13.50;;
146;SDS011;45999;48.808;9.182;2023-03-01T04:43:32;19.50;;;14.47;;
146;SDS011;45999;48.808;9.182;2023-03-01T04:46:01;17.57;;;14.10;;
146;SDS011;45999;48.808;9.182;2023-03-01T04:48:29;19.00;;;14.40;;
146;SDS011;45999;48.808;9.182;2023-03-01T04:51:00;17.97;;;13.70;;
146;SDS011;45999;48.808;9.182;2023-03-01T04:53:27;17.30;;;13.57;;
146;SDS011;45999;48.808;9.182;2023-03-01T04:55:54;21.57;;;14.57;;
146;SDS011;45999;48.808;9.182;2023-03-01T04:58:25;16.63;;;13.93;;
146;SDS011;45999;48.808;9.182;2023-03-01T05:00:53;18.57;;;13.70;;
146;SDS011;45999;48.808;9.182;2023-03-01T05:03:20;17.23;;;14.07;;
146;SDS011;45999;48.808;9.182;2023-03-01T05:05:48;18.53;;;13.30;;
146;SDS011;45999;48.808;9.182;2023-03-01T05:08:16;21.30;;;14.30;;
146;SDS011;45999;48.808;9.182;2023-03-01T05:10:48;17.90;;;14.10;;
146;SDS011;45999;48.808;9.182;2023-03-01T05:13:16;19.20;;;13.93;;
146;SDS011;45999;48.808;9.182;2023-03-01T05:15:56;18.23;;;13.60;;
146;SDS011;45999;48.808;9.182;2023-03-01T05:18:27;17.70;;;14.10;;
146;SDS011;45999;48.808;9.182;2023-03-01T05:21:02;18.87;;;14.00;;
146;SDS011;45999;48.808;9.182;2023-03-01T05:23:31;18.97;;;14.20;;
146;SDS011;45999;48.808;9.182;2023-03-01T05:25:58;18.07;;;13.83;;
146;SDS011;45999;48.808;9.182;2023-03-01T05:28:25;18.80;;;13.33;;
146;SDS011;45999;48.808;9.182;2023-03-01T05:30:53;18.97;;;14.10;;
146;SDS011;45999;48.808;9.182;2023-03-01T05:33:19;17.47;;;13.93;;
146;SDS011;45999;48.808;9.182;2023-03-01T05:35:47;17.80;;;14.07;;
146;SDS011;45999;48.808;9.182;2023-03-01T05:38:15;18.87;;;13.67;;
146;SDS011;45999;48.808;9.182;2023-03-01T05:40:43;18.27;;;14.17;;
146;SDS011;45999;48.808;9.182;2023-03-01T05:43:11;18.57;;;14.20;;
146;SDS011;45999;48.808;9.182;2023-03-01T05:45:39;20.40;;;13.50;;
146;SDS011;45999;48.808;9.182;2023-03-01T05:48:06;17.93;;;13.03;;
146;SDS011;45999;48.808;9.182;2023-03-01T05:50:35;16.17;;;12.80;;
146;SDS011;45999;48.808;9.182;2023-03-01T05:53:05;17.60;;;14.47;;
146;SDS011;45999;48.808;9.182;2023-03-01T05:55:40;17.57;;;14.47;;
146;SDS011;45999;48.808;9.182;2023-03-01T05:58:08;19.40;;;14.17;;
146;SDS011;45999;48.808;9.182;2023-03-01T06:00:38;19.87;;;13.83;;
146;SDS011;45999;48.808;9.182;2023-03-01T06:03:06;20.07;;;14.27;;
146;SDS011;45999;48.808;9.182;2023-03-01T06:05:32;18.13;;;13.43;;
146;SDS011;45999;48.808;9.182;2023-03-01T06:07:59;18.90;;;14.10;;
146;SDS011;45999;48.808;9.182;2023-03-01T06:10:26;18.17;;;13.73;;
146;SDS011;45999;48.808;9.182;2023-03-01T06:12:53;20.23;;;15.33;;
146;SDS011;45999;48.808;9.182;2023-03-01T06:15:20;18.03;;;14.57;;
146;SDS011;45999;48.808;9.182;2023-03-01T06:17:47;18.30;;;14.17;;
146;SDS011;45999;48.808;9.182;2023-03-01T06:20:18;22.13;;;14.90;;
146;SDS011;45999;48.808;9.182;2023-03-01T06:22:46;22.10;;;14.63;;
146;SDS011;45999;48.808;9.182;2023-03-01T06:25:14;19.07;;;14.40;;
146;SDS011;45999;48.808;9.182;2023-03-01T06:27:43;20.13;;;15.07;;
146;SDS011;45999;48.808;9.182;2023-03-01T06:30:10;18.37;;;14.53;;
146;SDS011;45999;48.808;9.182;2023-03-01T06:32:39;21.10;;;15.10;;
146;SDS011;45999;48.808;9.182;2023-03-01T06:35:07;19.30;;;14.90;;
146;SDS011;45999;48.808;9.182;2023-03-01T06:37:34;20.67;;;14.17;;
146;SDS011;45999;48.808;9.182;2023-03-01T06:40:02;22.20;;;13.73;;
146;SDS011;45999;48.808;9.182;2023-03-01T06:42:33;18.37;;;13.30;;
146;SDS011;45999;48.808;9.182;2023-03-01T06:45:02;20.13;;;13.93;;
146;SDS011;45999;48.808;9.182;2023-03-01T06:47:29;18.97;;;15.10;;
146;SDS011;45999;48.808;9.182;2023-03-01T06:49:56;18.83;;;13.73;;
146;SDS011;45999;48.808;9.182;2023-03-01T06:52:22;21.27;;;14.43;;
146;SDS011;45999;48.808;9.182;2023-03-01T06:54:48;19.20;;;14.80;;
146;SDS011;45999;48.808;9.182;2023-03-01T06:57:15;20.50;;;14.53;;
146;SDS011;45999;48.808;9.182;2023-03-01T06:59:41;18.83;;;14.20;;
146;SDS011;45999;48.808;9.182;2023-03-01T07:02:09;19.77;;;14.50;;
146;SDS011;45999;48.808;9.182;2023-03-01T07:04:39;19.53;;;14.13;;
146;SDS011;45999;48.808;9.182;2023-03-01T07:07:06;18.73;;;14.93;;
146;SDS011;45999;48.808;9.182;2023-03-01T07:09:33;20.77;;;13.97;;
146;SDS011;45999;48.808;9.182;2023-03-01T07:12:00;20.87;;;14.40;;
146;SDS011;45999;48.808;9.182;2023-03-01T07:14:26;20.03;;;15.27;;
146;SDS011;45999;48.808;9.182;2023-03-01T07:16:53;21.37;;;15.97;;
146;SDS011;45999;48.808;9.182;2023-03-01T07:19:20;21.50;;;15.27;;
146;SDS011;45999;48.808;9.182;2023-03-01T07:21:48;18.40;;;13.73;;
146;SDS011;45999;48.808;9.182;2023-03-01T07:24:14;18.83;;;14.63;;
146;SDS011;45999;48.808;9.182;2023-03-01T07:26:41;19.37;;;14.67;;
146;SDS011;45999;48.808;9.182;2023-03-01T07:29:07;20.73;;;14.00;;
146;SDS011;45999;48.808;9.182;2023-03-01T07:31:35;20.70;;;14.73;;
146;SDS011;45999;48.808;9.182;2023-03-01T07:34:02;22.83;;;16.10;;
146;SDS011;45999;48.808;9.182;2023-03-01T07:36:29;20.83;;;18.25;;
146;SDS011;45999;48.808;9.182;2023-03-01T07:38:55;21.23;;;16.30;;
146;SDS011;45999;48.808;9.182;2023-03-01T07:41:22;22.87;;;16.27;;
146;SDS011;45999;48.808;9.182;2023-03-01T07:43:49;18.67;;;14.93;;
146;SDS011;45999;48.808;9.182;2023-03-01T07:46:15;21.87;;;15.37;;
146;SDS011;45999;48.808;9.182;2023-03-01T07:48:43;22.27;;;15.40;;
146;SDS011;45999;48.808;9.182;2023-03-01T07:51:09;19.87;;;15.03;;
146;SDS011;45999;48.808;9.182;2023-03-01T07:53:36;19.63;;;15.00;;
146;SDS011;45999;48.808;9.182;2023-03-01T07:58:39;18.50;;;14.67;;
146;SDS011;45999;48.808;9.182;2023-03-01T08:01:08;17.33;;;13.13;;
146;SDS011;45999;48.808;9.182;2023-03-01T08:03:36;18.40;;;14.67;;
146;SDS011;45999;48.808;9.182;2023-03-01T08:06:04;18.87;;;14.93;;
146;SDS011;45999;48.808;9.182;2023-03-01T08:08:32;20.40;;;15.60;;
146;SDS011;45999;48.808;9.182;2023-03-01T08:10:59;20.27;;;15.03;;
146;SDS011;45999;48.808;9.182;2023-03-01T08:13:27;22.30;;;14.87;;
146;SDS011;45999;48.808;9.182;2023-03-01T08:15:53;19.93;;;14.30;;
146;SDS011;45999;48.808;9.182;2023-03-01T08:18:20;18.83;;;15.37;;
146;SDS011;45999;48.808;9.182;2023-03-01T08:20:47;18.73;;;15.60;;
146;SDS011;45999;48.808;9.182;2023-03-01T08:23:13;19.53;;;16.47;;
146;SDS011;45999;48.808;9.182;2023-03-01T08:25:40;19.07;;;14.50;;
146;SDS011;45999;48.808;9.182;2023-03-01T08:28:07;21.07;;;14.20;;
146;SDS011;45999;48.808;9.182;2023-03-01T08:30:33;23.07;;;14.67;;
146;SDS011;45999;48.808;9.182;2023-03-01T08:33:00;18.13;;;14.23;;
146;SDS011;45999;48.808;9.182;2023-03-01T08:35:26;20.27;;;14.43;;
146;SDS011;45999;48.808;9.182;2023-03-01T08:37:52;19.30;;;15.50;;
146;SDS011;45999;48.808;9.182;2023-03-01T08:40:19;19.03;;;15.07;;
146;SDS011;45999;48.808;9.182;2023-03-01T08:42:45;24.03;;;16.40;;
146;SDS011;45999;48.808;9.182;2023-03-01T08:45:12;20.73;;;14.83;;
146;SDS011;45999;48.808;9.182;2023-03-01T08:47:39;19.10;;;13.23;;
146;SDS011;45999;48.808;9.182;2023-03-01T08:50:05;20.77;;;15.13;;
146;SDS011;45999;48.808;9.182;2023-03-01T08:52:32;20.43;;;16.43;;
146;SDS011;45999;48.808;9.182;2023-03-01T08:54:59;19.37;;;16.00;;
146;SDS011;45999;48.808;9.182;2023-03-01T08:57:26;20.33;;;14.90;;
146;SDS011;45999;48.808;9.182;2023-03-01T08:59:53;21.60;;;15.33;;
146;SDS011;45999;48.808;9.182;2023-03-01T09:02:21;20.80;;;14.70;;
146;SDS011;45999;48.808;9.182;2023-03-01T09:04:47;18.87;;;14.47;;
146;SDS011;45999;48.808;9.182;2023-03-01T09:07:14;18.97;;;15.00;;
146;SDS011;45999;48.808;9.182;2023-03-01T09:09:40;20.10;;;16.00;;
146;SDS011;45999;48.808;9.182;2023-03-01T09:12:07;18.17;;;15.50;;
146;SDS011;45999;48.808;9.182;2023-03-01T09:14:33;20.37;;;16.63;;
146;SDS011;45999;48.808;9.182;2023-03-01T09:16:59;21.70;;;16.10;;
146;SDS011;45999;48.808;9.182;2023-03-01T09:19:27;21.63;;;16.40;;
146;SDS011;45999;48.808;9.182;2023-03-01T09:21:54;18.27;;;14.10;;
146;SDS011;45999;48.808;9.182;2023-03-01T09:24:23;19.03;;;14.57;;
146;SDS011;45999;48.808;9.182;2023-03-01T09:26:52;20.53;;;15.23;;
146;SDS011;45999;48.808;9.182;2023-03-01T09:29:20;22.40;;;16.40;;
146;SDS011;45999;48.808;9.182;2023-03-01T09:31:46;21.67;;;17.03;;
146;SDS011;45999;48.808;9.182;2023-03-01T09:34:13;22.03;;;15.77;;
146;SDS011;45999;48.808;9.182;2023-03-01T09:36:41;21.53;;;16.07;;
146;SDS011;45999;48.808;9.182;2023-03-01T09:39:07;20.13;;;15.80;;
146;SDS011;45999;48.808;9.182;2023-03-01T09:44:28;19.93;;;14.83;;
146;SDS011;45999;48.808;9.182;2023-03-01T09:47:18;18.50;;;14.87;;
146;SDS011;45999;48.808;9.182;2023-03-01T09:50:31;22.07;;;15.40;;
146;SDS011;45999;48.808;9.182;2023-03-01T09:52:43;22.47;;;15.87;;
146;SDS011;45999;48.808;9.182;2023-03-01T09:55:15;20.17;;;16.40;;
146;SDS011;45999;48.808;9.182;2023-03-01T09:57:54;20.30;;;15.43;;
146;SDS011;45999;48.808;9.182;2023-03-01T10:00:41;18.77;;;15.27;;
146;SDS011;45999;48.808;9.182;2023-03-01T10:05:59;20.13;;;15.13;;
146;SDS011;45999;48.808;9.182;2023-03-01T10:08:38;19.13;;;15.53;;
146;SDS011;45999;48.808;9.182;2023-03-01T10:19:17;18.90;;;15.33;;
146;SDS011;45999;48.808;9.182;2023-03-01T10:21:50;21.80;;;16.60;;
146;SDS011;45999;48.808;9.182;2023-03-01T10:24:18;20.83;;;15.87;;
146;SDS011;45999;48.808;9.182;2023-03-01T10:26:56;19.03;;;15.47;;
146;SDS011;45999;48.808;9.182;2023-03-01T10:29:30;22.23;;;16.10;;
146;SDS011;45999;48.808;9.182;2023-03-01T10:32:00;19.23;;;15.40;;
146;SDS011;45999;48.808;9.182;2023-03-01T10:34:32;18.73;;;14.73;;
146;SDS011;45999;48.808;9.182;2023-03-01T10:37:04;16.83;;;14.03;;
146;SDS011;45999;48.808;9.182;2023-03-01T10:39:36;17.63;;;14.53;;
146;SDS011;45999;48.808;9.182;2023-03-01T10:42:04;18.93;;;14.47;;
146;SDS011;45999;48.808;9.182;2023-03-01T10:44:46;18.03;;;14.47;;
146;SDS011;45999;48.808;9.182;2023-03-01T10:47:16;16.07;;;14.30;;
146;SDS011;45999;48.808;9.182;2023-03-01T10:50:03;18.40;;;14.53;;
146;SDS011;45999;48.808;9.182;2023-03-01T10:52:43;17.20;;;13.97;;
146;SDS011;45999;48.808;9.182;2023-03-01T10:55:35;15.97;;;13.40;;
146;SDS011;45999;48.808;9.182;2023-03-01T11:00:54;19.20;;;14.07;;
146;SDS011;45999;48.808;9.182;2023-03-01T11:03:23;17.63;;;14.43;;
146;SDS011;45999;48.808;9.182;2023-03-01T11:06:00;17.00;;;14.80;;
146;SDS011;45999;48.808;9.182;2023-03-01T11:08:50;19.43;;;15.00;;
146;SDS011;45999;48.808;9.182;2023-03-01T11:11:24;16.37;;;13.53;;
146;SDS011;45999;48.808;9.182;2023-03-01T11:16:34;17.17;;;14.67;;
146;SDS011;45999;48.808;9.182;2023-03-01T11:21:35;16.87;;;13.93;;
146;SDS011;45999;48.808;9.182;2023-03-01T11:24:05;19.10;;;14.87;;
146;SDS011;45999;48.808;9.182;2023-03-01T11:26:38;17.03;;;14.57;;
146;SDS011;45999;48.808;9.182;2023-03-01T11:32:02;15.83;;;13.20;;
146;SDS011;45999;48.808;9.182;2023-03-01T11:37:09;16.60;;;14.20;;
146;SDS011;45999;48.808;9.182;2023-03-01T11:39:52;17.97;;;13.73;;
146;SDS011;45999;48.808;9.182;2023-03-01T11:45:08;17.57;;;14.07;;
146;SDS011;45999;48.808;9.182;2023-03-01T12:01:02;14.00;;;12.50;;
146;SDS011;45999;48.808;9.182;2023-03-01T12:06:18;14.23;;;12.73;;
146;SDS011;45999;48.808;9.182;2023-03-01T12:23:36;15.57;;;12.93;;
146;SDS011;45999;48.808;9.182;2023-03-01T12:26:29;15.13;;;12.33;;
146;SDS011;45999;48.808;9.182;2023-03-01T12:35:23;13.57;;;11.57;;
146;SDS011;45999;48.808;9.182;2023-03-01T12:37:31;15.27;;;13.63;;
146;SDS011;45999;48.808;9.182;2023-03-01T12:40:13;14.47;;;12.53;;
146;SDS011;45999;48.808;9.182;2023-03-01T12:51:14;13.70;;;11.40;;
146;SDS011;45999;48.808;9.182;2023-03-01T12:53:50;14.93;;;12.87;;
146;SDS011;45999;48.808;9.182;2023-03-01T12:56:23;14.43;;;11.90;;
146;SDS011;45999;48.808;9.182;2023-03-01T12:59:08;14.47;;;11.17;;
146;SDS011;45999;48.808;9.182;2023-03-01T13:04:59;12.23;;;10.93;;
146;SDS011;45999;48.808;9.182;2023-03-01T13:07:43;13.17;;;10.73;;
146;SDS011;45999;48.808;9.182;2023-03-01T13:10:21;11.77;;;10.57;;
146;SDS011;45999;48.808;9.182;2023-03-01T13:17:49;15.27;;;13.63;;
146;SDS011;45999;48.808;9.182;2023-03-01T13:20:18;15.07;;;13.40;;
146;SDS011;45999;48.808;9.182;2023-03-01T13:22:46;15.20;;;12.73;;
146;SDS011;45999;48.808;9.182;2023-03-01T13:25:17;15.13;;;12.37;;
146;SDS011;45999;48.808;9.182;2023-03-01T13:27:45;16.43;;;12.27;;
146;SDS011;45999;48.808;9.182;2023-03-01T13:35:53;14.93;;;12.80;;
146;SDS011;45999;48.808;9.182;2023-03-01T13:41:14;16.67;;;12.30;;
146;SDS011;45999;48.808;9.182;2023-03-01T13:43:46;17.53;;;13.47;;
146;SDS011;45999;48.808;9.182;2023-03-01T13:46:22;17.23;;;13.63;;
146;SDS011;45999;48.808;9.182;2023-03-01T13:48:51;15.90;;;13.07;;
146;SDS011;45999;48.808;9.182;2023-03-01T13:51:21;16.20;;;13.57;;
146;SDS011;45999;48.808;9.182;2023-03-01T13:53:50;14.43;;;12.50;;
146;SDS011;45999;48.808;9.182;2023-03-01T13:56:25;16.53;;;13.73;;
146;SDS011;45999;48.808;9.182;2023-03-01T14:01:33;16.63;;;14.20;;
146;SDS011;45999;48.808;9.182;2023-03-01T14:04:02;14.17;;;12.63;;
146;SDS011;45999;48.808;9.182;2023-03-01T14:06:30;16.23;;;13.60;;
146;SDS011;45999;48.808;9.182;2023-03-01T14:09:17;23.93;;;19.03;;
146;SDS011;45999;48.808;9.182;2023-03-01T14:14:32;20.07;;;15.17;;
146;SDS011;45999;48.808;9.182;2023-03-01T14:17:21;17.73;;;14.87;;
146;SDS011;45999;48.808;9.182;2023-03-01T14:20:19;18.25;;;16.35;;
146;SDS011;45999;48.808;9.182;2023-03-01T14:22:48;17.63;;;14.87;;
146;SDS011;45999;48.808;9.182;2023-03-01T14:27:54;17.43;;;14.50;;
146;SDS011;45999;48.808;9.182;2023-03-01T14:30:43;17.03;;;14.83;;
146;SDS011;45999;48.808;9.182;2023-03-01T14:33:28;17.20;;;14.27;;
146;SDS011;45999;48.808;9.182;2023-03-01T14:36:09;17.43;;;13.43;;
146;SDS011;45999;48.808;9.182;2023-03-01T14:38:38;19.93;;;14.03;;
146;SDS011;45999;48.808;9.182;2023-03-01T14:41:10;16.97;;;14.03;;
146;SDS011;45999;48.808;9.182;2023-03-01T14:43:50;18.20;;;14.27;;
146;SDS011;45999;48.808;9.182;2023-03-01T14:46:23;18.43;;;15.43;;
146;SDS011;45999;48.808;9.182;2023-03-01T14:48:53;18.43;;;14.50;;
146;SDS011;45999;48.808;9.182;2023-03-01T14:51:23;16.00;;;14.30;;
146;SDS011;45999;48.808;9.182;2023-03-01T14:53:50;18.43;;;13.90;;
146;SDS011;45999;48.808;9.182;2023-03-01T14:56:17;19.77;;;15.10;;
146;SDS011;45999;48.808;9.182;2023-03-01T14:58:44;15.53;;;13.87;;
146;SDS011;45999;48.808;9.182;2023-03-01T15:01:13;17.80;;;15.50;;
146;SDS011;45999;48.808;9.182;2023-03-01T15:03:42;20.03;;;14.03;;
146;SDS011;45999;48.808;9.182;2023-03-01T15:06:10;18.00;;;15.03;;
146;SDS011;45999;48.808;9.182;2023-03-01T15:08:42;16.60;;;14.47;;
146;SDS011;45999;48.808;9.182;2023-03-01T15:14:52;15.27;;;13.27;;
146;SDS011;45999;48.808;9.182;2023-03-01T15:20:06;16.57;;;14.17;;
146;SDS011;45999;48.808;9.182;2023-03-01T15:22:45;17.90;;;14.23;;
146;SDS011;45999;48.808;9.182;2023-03-01T15:25:15;19.07;;;14.67;;
146;SDS011;45999;48.808;9.182;2023-03-01T15:27:47;19.43;;;14.80;;
146;SDS011;45999;48.808;9.182;2023-03-01T15:30:19;15.30;;;13.70;;
146;SDS011;45999;48.808;9.182;2023-03-01T15:32:48;17.10;;;14.53;;
146;SDS011;45999;48.808;9.182;2023-03-01T15:35:45;17.43;;;13.90;;
146;SDS011;45999;48.808;9.182;2023-03-01T15:41:03;18.47;;;14.00;;
146;SDS011;45999;48.808;9.182;2023-03-01T15:43:47;17.30;;;14.27;;
146;SDS011;45999;48.808;9.182;2023-03-01T15:46:16;16.53;;;13.20;;
146;SDS011;45999;48.808;9.182;2023-03-01T15:48:45;16.80;;;14.10;;
146;SDS011;45999;48.808;9.182;2023-03-01T15:51:14;16.40;;;14.37;;
146;SDS011;45999;48.808;9.182;2023-03-01T15:53:42;17.20;;;13.67;;
146;SDS011;45999;48.808;9.182;2023-03-01T15:56:15;17.17;;;13.00;;
146;SDS011;45999;48.808;9.182;2023-03-01T15:58:41;18.67;;;14.47;;
146;SDS011;45999;48.808;9.182;2023-03-01T16:01:14;16.87;;;13.47;;
146;SDS011;45999;48.808;9.182;2023-03-01T16:03:43;15.97;;;13.63;;
146;SDS011;45999;48.808;9.182;2023-03-01T16:06:10;16.67;;;13.40;;
146;SDS011;45999;48.808;9.182;2023-03-01T16:08:37;15.03;;;13.23;;
146;SDS011;45999;48.808;9.182;2023-03-01T16:11:05;16.33;;;13.53;;
146;SDS011;45999;48.808;9.182;2023-03-01T16:13:40;16.73;;;12.73;;
146;SDS011;45999;48.808;9.182;2023-03-01T16:16:07;15.17;;;12.43;;
146;SDS011;45999;48.808;9.182;2023-03-01T16:18:37;18.23;;;13.83;;
146;SDS011;45999;48.808;9.182;2023-03-01T16:21:04;16.93;;;13.57;;
146;SDS011;45999;48.808;9.182;2023-03-01T16:23:31;15.63;;;12.83;;
146;SDS011;45999;48.808;9.182;2023-03-01T16:26:00;15.17;;;13.20;;
146;SDS011;45999;48.808;9.182;2023-03-01T16:28:27;16.47;;;13.73;;
146;SDS011;45999;48.808;9.182;2023-03-01T16:30:53;17.30;;;13.17;;
146;SDS011;45999;48.808;9.182;2023-03-01T16:33:19;17.10;;;13.17;;
146;SDS011;45999;48.808;9.182;2023-03-01T16:35:46;15.80;;;13.33;;
146;SDS011;45999;48.808;9.182;2023-03-01T16:38:12;16.90;;;13.77;;
146;SDS011;45999;48.808;9.182;2023-03-01T16:40:38;15.77;;;13.00;;
146;SDS011;45999;48.808;9.182;2023-03-01T16:43:05;15.80;;;12.97;;
146;SDS011;45999;48.808;9.182;2023-03-01T16:45:34;16.30;;;12.93;;
146;SDS011;45999;48.808;9.182;2023-03-01T16:48:02;17.53;;;13.20;;
146;SDS011;45999;48.808;9.182;2023-03-01T16:50:29;15.80;;;13.37;;
146;SDS011;45999;48.808;9.182;2023-03-01T16:52:55;17.93;;;13.90;;
146;SDS011;45999;48.808;9.182;2023-03-01T16:55:22;16.83;;;13.10;;
146;SDS011;45999;48.808;9.182;2023-03-01T16:57:48;17.67;;;14.00;;
146;SDS011;45999;48.808;9.182;2023-03-01T17:00:16;16.73;;;13.40;;
146;SDS011;45999;48.808;9.182;2023-03-01T17:02:42;15.10;;;13.50;;
146;SDS011;45999;48.808;9.182;2023-03-01T17:05:09;15.93;;;12.90;;
146;SDS011;45999;48.808;9.182;2023-03-01T17:07:36;19.10;;;14.00;;
146;SDS011;45999;48.808;9.182;2023-03-01T17:10:04;18.23;;;14.07;;
146;SDS011;45999;48.808;9.182;2023-03-01T17:12:33;17.97;;;13.47;;
146;SDS011;45999;48.808;9.182;2023-03-01T17:14:59;14.87;;;12.53;;